sensor_id;sensor_type;location;lat;lon;timestamp;temperature;humidity
41262;DHT22;29629;52.532;13.352;2023-03-02T00:00:58;3.90;99.90
41262;DHT22;29629;52.532;13.352;2023-03-02T00:03:27;3.80;99.90
41262;DHT22;29629;52.532;13.352;2023-03-02T00:05:54;3.90;99.90
41262;DHT22;29629;52.532;13.352;2023-03-02T00:08:21;3.90;99.90
41262;DHT22;29629;52.532;13.352;2023-03-02T00:10:48;3.80;99.90
41262;DHT22;29629;52.532;13.352;2023-03-02T00:13:15;3.80;99.90
41262;DHT22;29629;52.532;13.352;2023-03-02T00:15:43;3.90;99.90
41262;DHT22;29629;52.532;13.352;2023-03-02T00:18:10;3.90;99.90
41262;DHT22;29629;52.532;13.352;2023-03-02T00:20:36;3.80;99.90
41262;DHT22;29629;52.532;13.352;2023-03-02T00:23:03;3.70;99.90
41262;DHT22;29629;52.532;13.352;2023-03-02T00:25:30;3.70;99.90
41262;DHT22;29629;52.532;13.352;2023-03-02T00:27:56;3.70;99.90
41262;DHT22;29629;52.532;13.352;2023-03-02T00:30:23;3.70;99.90
41262;DHT22;29629;52.532;13.352;2023-03-02T00:32:51;3.70;99.90
41262;DHT22;29629;52.532;13.352;2023-03-02T00:35:18;3.60;99.90
41262;DHT22;29629;52.532;13.352;2023-03-02T00:37:44;3.60;99.90
41262;DHT22;29629;52.532;13.352;2023-03-02T00:40:11;3.70;99.90
41262;DHT22;29629;52.532;13.352;2023-03-02T00:42:38;3.70;99.90
41262;DHT22;29629;52.532;13.352;2023-03-02T00:45:05;3.60;99.90
41262;DHT22;29629;52.532;13.352;2023-03-02T00:47:32;3.60;99.90
41262;DHT22;29629;52.532;13.352;2023-03-02T00:50:00;3.50;99.90
41262;DHT22;29629;52.532;13.352;2023-03-02T00:52:27;3.50;99.90
41262;DHT22;29629;52.532;13.352;2023-03-02T00:54:54;3.40;99.90
41262;DHT22;29629;52.532;13.352;2023-03-02T00:57:21;3.40;99.90
41262;DHT22;29629;52.532;13.352;2023-03-02T00:59:48;3.50;99.90
41262;DHT22;29629;52.532;13.352;2023-03-02T01:02:14;3.40;99.90
41262;DHT22;29629;52.532;13.352;2023-03-02T01:04:41;3.40;99.90
41262;DHT22;29629;52.532;13.352;2023-03-02T01:07:11;3.40;99.90
41262;DHT22;29629;52.532;13.352;2023-03-02T01:09:39;3.40;99.90
41262;DHT22;29629;52.532;13.352;2023-03-02T01:12:06;3.40;99.90
41262;DHT22;29629;52.532;13.352;2023-03-02T01:14:34;3.30;99.90
41262;DHT22;29629;52.532;13.352;2023-03-02T01:17:01;3.30;99.90
41262;DHT22;29629;52.532;13.352;2023-03-02T01:19:28;3.30;99.90
41262;DHT22;29629;52.532;13.352;2023-03-02T01:21:55;3.30;99.90
41262;DHT22;29629;52.532;13.352;2023-03-02T01:24:23;3.40;99.90
41262;DHT22;29629;52.532;13.352;2023-03-02T01:26:49;3.30;99.90
41262;DHT22;29629;52.532;13.352;2023-03-02T01:29:16;3.30;99.90
41262;DHT22;29629;52.532;13.352;2023-03-02T01:31:43;3.20;99.90
41262;DHT22;29629;52.532;13.352;2023-03-02T01:34:09;3.20;99.90
41262;DHT22;29629;52.532;13.352;2023-03-02T01:36:36;3.10;99.90
41262;DHT22;29629;52.532;13.352;2023-03-02T01:39:03;3.10;99.90
41262;DHT22;29629;52.532;13.352;2023-03-02T01:44:44;3.00;99.90
41262;DHT22;29629;52.532;13.352;2023-03-02T01:47:12;3.00;99.90
41262;DHT22;29629;52.532;13.352;2023-03-02T01:49:40;3.00;99.90
41262;DHT22;29629;52.532;13.352;2023-03-02T01:52:08;3.00;99.90
41262;DHT22;29629;52.532;13.352;2023-03-02T01:54:36;3.00;99.90
41262;DHT22;29629;52.532;13.352;2023-03-02T01:57:03;3.10;99.90
41262;DHT22;29629;52.532;13.352;2023-03-02T01:59:31;3.00;99.90
41262;DHT22;29629;52.532;13.352;2023-03-02T02:02:00;2.90;99.90
41262;DHT22;29629;52.532;13.352;2023-03-02T02:04:29;2.90;99.90
41262;DHT22;29629;52.532;13.352;2023-03-02T02:06:57;2.90;99.90
41262;DHT22;29629;52.532;13.352;2023-03-02T02:09:25;2.90;99.90
41262;DHT22;29629;52.532;13.352;2023-03-02T02:11:52;2.80;99.90
41262;DHT22;29629;52.532;13.352;2023-03-02T02:14:18;2.80;99.90
41262;DHT22;29629;52.532;13.352;2023-03-02T02:16:45;2.70;99.90
41262;DHT22;29629;52.532;13.352;2023-03-02T02:19:14;2.80;99.90
41262;DHT22;29629;52.532;13.352;2023-03-02T02:21:43;2.80;99.90
41262;DHT22;29629;52.532;13.352;2023-03-02T02:24:11;2.70;99.90
41262;DHT22;29629;52.532;13.352;2023-03-02T02:26:41;2.70;99.90
41262;DHT22;29629;52.532;13.352;2023-03-02T02:29:09;2.70;99.90
41262;DHT22;29629;52.532;13.352;2023-03-02T02:31:39;2.80;99.90
41262;DHT22;29629;52.532;13.352;2023-03-02T02:34:09;2.70;99.90
41262;DHT22;29629;52.532;13.352;2023-03-02T02:36:37;2.70;99.90
41262;DHT22;29629;52.532;13.352;2023-03-02T02:39:06;2.60;99.90
41262;DHT22;29629;52.532;13.352;2023-03-02T02:41:34;2.60;99.90
41262;DHT22;29629;52.532;13.352;2023-03-02T02:44:03;2.60;99.90
41262;DHT22;29629;52.532;13.352;2023-03-02T02:46:30;2.70;99.90
41262;DHT22;29629;52.532;13.352;2023-03-02T02:48:58;2.70;99.90
41262;DHT22;29629;52.532;13.352;2023-03-02T02:51:25;2.80;99.90
41262;DHT22;29629;52.532;13.352;2023-03-02T02:53:53;2.70;99.90
41262;DHT22;29629;52.532;13.352;2023-03-02T02:56:23;2.70;99.90
41262;DHT22;29629;52.532;13.352;2023-03-02T02:58:51;2.70;99.90
41262;DHT22;29629;52.532;13.352;2023-03-02T03:01:20;2.60;99.90
41262;DHT22;29629;52.532;13.352;2023-03-02T03:03:51;2.70;99.90
41262;DHT22;29629;52.532;13.352;2023-03-02T03:06:19;2.60;99.90
41262;DHT22;29629;52.532;13.352;2023-03-02T03:08:54;2.60;99.90
41262;DHT22;29629;52.532;13.352;2023-03-02T03:11:21;2.60;99.90
41262;DHT22;29629;52.532;13.352;2023-03-02T03:13:50;2.60;99.90
41262;DHT22;29629;52.532;13.352;2023-03-02T03:16:17;2.50;99.90
41262;DHT22;29629;52.532;13.352;2023-03-02T03:18:46;2.40;99.90
41262;DHT22;29629;52.532;13.352;2023-03-02T03:21:13;2.30;99.90
41262;DHT22;29629;52.532;13.352;2023-03-02T03:23:42;2.20;99.90
41262;DHT22;29629;52.532;13.352;2023-03-02T03:26:09;2.30;99.90
41262;DHT22;29629;52.532;13.352;2023-03-02T03:28:36;2.20;99.90
41262;DHT22;29629;52.532;13.352;2023-03-02T03:31:03;2.20;99.90
41262;DHT22;29629;52.532;13.352;2023-03-02T03:33:29;2.20;99.90
41262;DHT22;29629;52.532;13.352;2023-03-02T03:35:57;2.10;99.90
41262;DHT22;29629;52.532;13.352;2023-03-02T03:38:25;2.20;99.90
41262;DHT22;29629;52.532;13.352;2023-03-02T03:40:51;2.20;99.90
41262;DHT22;29629;52.532;13.352;2023-03-02T03:43:18;2.10;99.90
41262;DHT22;29629;52.532;13.352;2023-03-02T03:45:45;2.10;99.90
41262;DHT22;29629;52.532;13.352;2023-03-02T03:48:11;2.10;99.90
41262;DHT22;29629;52.532;13.352;2023-03-02T03:50:38;2.10;99.90
41262;DHT22;29629;52.532;13.352;2023-03-02T03:53:06;2.20;99.90
41262;DHT22;29629;52.532;13.352;2023-03-02T03:55:33;2.30;99.90
41262;DHT22;29629;52.532;13.352;2023-03-02T03:57:59;2.30;99.90
41262;DHT22;29629;52.532;13.352;2023-03-02T04:00:26;2.30;99.90
41262;DHT22;29629;52.532;13.352;2023-03-02T04:02:53;2.30;99.90
41262;DHT22;29629;52.532;13.352;2023-03-02T04:05:20;2.20;99.90
41262;DHT22;29629;52.532;13.352;2023-03-02T04:07:46;2.10;99.90
41262;DHT22;29629;52.532;13.352;2023-03-02T04:10:15;2.10;99.90
41262;DHT22;29629;52.532;13.352;2023-03-02T04:12:41;2.00;99.90
41262;DHT22;29629;52.532;13.352;2023-03-02T04:15:09;1.90;99.90
41262;DHT22;29629;52.532;13.352;2023-03-02T04:17:38;1.80;99.90
41262;DHT22;29629;52.532;13.352;2023-03-02T04:20:05;1.80;99.90
41262;DHT22;29629;52.532;13.352;2023-03-02T04:22:33;1.80;99.90
41262;DHT22;29629;52.532;13.352;2023-03-02T04:25:00;1.90;99.90
41262;DHT22;29629;52.532;13.352;2023-03-02T04:27:28;2.00;99.90
41262;DHT22;29629;52.532;13.352;2023-03-02T04:29:55;1.90;99.90
41262;DHT22;29629;52.532;13.352;2023-03-02T04:32:22;1.90;99.90
41262;DHT22;29629;52.532;13.352;2023-03-02T04:34:48;1.90;99.90
41262;DHT22;29629;52.532;13.352;2023-03-02T04:37:15;1.90;99.90
41262;DHT22;29629;52.532;13.352;2023-03-02T04:39:42;1.70;99.90
41262;DHT22;29629;52.532;13.352;2023-03-02T04:42:11;1.90;99.90
41262;DHT22;29629;52.532;13.352;2023-03-02T04:44:39;1.70;99.90
41262;DHT22;29629;52.532;13.352;2023-03-02T04:47:06;1.80;99.90
41262;DHT22;29629;52.532;13.352;2023-03-02T04:49:33;1.90;99.90
41262;DHT22;29629;52.532;13.352;2023-03-02T04:51:59;1.90;99.90
41262;DHT22;29629;52.532;13.352;2023-03-02T04:54:26;1.80;99.90
41262;DHT22;29629;52.532;13.352;2023-03-02T04:56:53;1.90;99.90
41262;DHT22;29629;52.532;13.352;2023-03-02T04:59:21;1.90;99.90
41262;DHT22;29629;52.532;13.352;2023-03-02T05:01:49;1.80;99.90
41262;DHT22;29629;52.532;13.352;2023-03-02T05:04:16;1.80;99.90
41262;DHT22;29629;52.532;13.352;2023-03-02T05:06:43;1.70;99.90
41262;DHT22;29629;52.532;13.352;2023-03-02T05:09:10;1.70;99.90
41262;DHT22;29629;52.532;13.352;2023-03-02T05:11:37;1.70;99.90
41262;DHT22;29629;52.532;13.352;2023-03-02T05:14:04;1.80;99.90
41262;DHT22;29629;52.532;13.352;2023-03-02T05:16:32;1.90;99.90
41262;DHT22;29629;52.532;13.352;2023-03-02T05:19:01;1.90;99.90
41262;DHT22;29629;52.532;13.352;2023-03-02T05:21:29;1.90;99.90
41262;DHT22;29629;52.532;13.352;2023-03-02T05:23:55;1.80;99.90
41262;DHT22;29629;52.532;13.352;2023-03-02T05:26:22;1.90;99.90
41262;DHT22;29629;52.532;13.352;2023-03-02T05:28:49;1.80;99.90
41262;DHT22;29629;52.532;13.352;2023-03-02T05:31:16;1.80;99.90
41262;DHT22;29629;52.532;13.352;2023-03-02T05:33:43;2.00;99.90
41262;DHT22;29629;52.532;13.352;2023-03-02T05:36:11;2.00;99.90
41262;DHT22;29629;52.532;13.352;2023-03-02T05:38:38;2.00;99.90
41262;DHT22;29629;52.532;13.352;2023-03-02T05:41:05;1.90;99.90
41262;DHT22;29629;52.532;13.352;2023-03-02T05:43:31;1.90;99.90
41262;DHT22;29629;52.532;13.352;2023-03-02T05:45:58;1.80;99.90
41262;DHT22;29629;52.532;13.352;2023-03-02T05:48:25;1.70;99.90
41262;DHT22;29629;52.532;13.352;2023-03-02T05:50:52;1.70;99.90
41262;DHT22;29629;52.532;13.352;2023-03-02T05:53:20;1.50;99.90
41262;DHT22;29629;52.532;13.352;2023-03-02T05:55:46;1.50;99.90
41262;DHT22;29629;52.532;13.352;2023-03-02T05:58:14;1.50;99.90
41262;DHT22;29629;52.532;13.352;2023-03-02T06:00:41;1.50;99.90
41262;DHT22;29629;52.532;13.352;2023-03-02T06:03:08;1.50;99.90
41262;DHT22;29629;52.532;13.352;2023-03-02T06:05:35;1.60;99.90
41262;DHT22;29629;52.532;13.352;2023-03-02T06:08:02;1.50;99.90
41262;DHT22;29629;52.532;13.352;2023-03-02T06:10:30;1.50;99.90
41262;DHT22;29629;52.532;13.352;2023-03-02T06:12:57;1.50;99.90
41262;DHT22;29629;52.532;13.352;2023-03-02T06:15:24;1.50;99.90
41262;DHT22;29629;52.532;13.352;2023-03-02T06:17:54;1.50;99.90
41262;DHT22;29629;52.532;13.352;2023-03-02T06:20:20;1.50;99.90
41262;DHT22;29629;52.532;13.352;2023-03-02T06:22:47;1.50;99.90
41262;DHT22;29629;52.532;13.352;2023-03-02T06:25:14;1.50;99.90
41262;DHT22;29629;52.532;13.352;2023-03-02T06:27:43;1.50;99.90
41262;DHT22;29629;52.532;13.352;2023-03-02T06:30:10;1.60;99.90
41262;DHT22;29629;52.532;13.352;2023-03-02T06:32:38;1.50;99.90
41262;DHT22;29629;52.532;13.352;2023-03-02T06:35:06;1.40;99.90
41262;DHT22;29629;52.532;13.352;2023-03-02T06:37:33;1.40;99.90
41262;DHT22;29629;52.532;13.352;2023-03-02T06:40:00;1.40;99.90
41262;DHT22;29629;52.532;13.352;2023-03-02T06:42:27;1.40;99.90
41262;DHT22;29629;52.532;13.352;2023-03-02T06:44:55;1.30;99.90
41262;DHT22;29629;52.532;13.352;2023-03-02T06:47:22;1.10;99.90
41262;DHT22;29629;52.532;13.352;2023-03-02T06:49:49;1.20;99.90
41262;DHT22;29629;52.532;13.352;2023-03-02T06:52:16;1.30;99.90
41262;DHT22;29629;52.532;13.352;2023-03-02T06:54:43;1.20;99.90
41262;DHT22;29629;52.532;13.352;2023-03-02T06:57:09;1.20;99.90
41262;DHT22;29629;52.532;13.352;2023-03-02T06:59:36;1.20;99.90
41262;DHT22;29629;52.532;13.352;2023-03-02T07:02:04;1.20;99.90
41262;DHT22;29629;52.532;13.352;2023-03-02T07:04:31;1.20;99.90
41262;DHT22;29629;52.532;13.352;2023-03-02T07:06:58;1.20;99.90
41262;DHT22;29629;52.532;13.352;2023-03-02T07:09:25;1.40;99.90
41262;DHT22;29629;52.532;13.352;2023-03-02T07:11:52;1.40;99.90
41262;DHT22;29629;52.532;13.352;2023-03-02T07:14:18;1.50;99.90
41262;DHT22;29629;52.532;13.352;2023-03-02T07:16:45;1.50;99.90
41262;DHT22;29629;52.532;13.352;2023-03-02T07:19:13;1.50;99.90
41262;DHT22;29629;52.532;13.352;2023-03-02T07:21:40;1.50;99.90
41262;DHT22;29629;52.532;13.352;2023-03-02T07:24:07;1.60;99.90
41262;DHT22;29629;52.532;13.352;2023-03-02T07:26:33;1.60;99.90
41262;DHT22;29629;52.532;13.352;2023-03-02T07:29:00;1.60;99.90
41262;DHT22;29629;52.532;13.352;2023-03-02T07:31:27;1.60;99.90
41262;DHT22;29629;52.532;13.352;2023-03-02T07:33:54;1.60;99.90
41262;DHT22;29629;52.532;13.352;2023-03-02T07:36:22;1.70;99.90
41262;DHT22;29629;52.532;13.352;2023-03-02T07:38:48;1.60;99.90
41262;DHT22;29629;52.532;13.352;2023-03-02T07:41:15;1.70;99.90
41262;DHT22;29629;52.532;13.352;2023-03-02T07:43:42;1.80;99.90
41262;DHT22;29629;52.532;13.352;2023-03-02T07:46:09;1.70;99.90
41262;DHT22;29629;52.532;13.352;2023-03-02T07:48:35;1.70;99.90
41262;DHT22;29629;52.532;13.352;2023-03-02T07:51:03;1.70;99.90
41262;DHT22;29629;52.532;13.352;2023-03-02T07:53:31;1.80;99.90
41262;DHT22;29629;52.532;13.352;2023-03-02T07:55:58;1.70;99.90
41262;DHT22;29629;52.532;13.352;2023-03-02T07:58:25;1.80;99.90
41262;DHT22;29629;52.532;13.352;2023-03-02T08:00:52;1.70;99.90
41262;DHT22;29629;52.532;13.352;2023-03-02T08:03:19;1.90;99.90
41262;DHT22;29629;52.532;13.352;2023-03-02T08:05:45;2.10;99.90
41262;DHT22;29629;52.532;13.352;2023-03-02T08:08:12;2.00;99.90
41262;DHT22;29629;52.532;13.352;2023-03-02T08:10:40;2.00;99.90
41262;DHT22;29629;52.532;13.352;2023-03-02T08:13:07;2.20;99.90
41262;DHT22;29629;52.532;13.352;2023-03-02T08:15:34;2.20;99.90
41262;DHT22;29629;52.532;13.352;2023-03-02T08:18:00;2.20;99.90
41262;DHT22;29629;52.532;13.352;2023-03-02T08:20:27;2.20;99.90
41262;DHT22;29629;52.532;13.352;2023-03-02T08:22:54;2.20;99.90
41262;DHT22;29629;52.532;13.352;2023-03-02T08:25:20;2.40;99.90
41262;DHT22;29629;52.532;13.352;2023-03-02T08:27:48;2.40;99.90
41262;DHT22;29629;52.532;13.352;2023-03-02T08:30:15;2.40;99.90
41262;DHT22;29629;52.532;13.352;2023-03-02T08:32:42;2.60;99.90
41262;DHT22;29629;52.532;13.352;2023-03-02T08:35:09;2.70;99.90
41262;DHT22;29629;52.532;13.352;2023-03-02T08:37:37;2.70;99.90
41262;DHT22;29629;52.532;13.352;2023-03-02T08:40:04;2.90;99.90
41262;DHT22;29629;52.532;13.352;2023-03-02T08:42:30;2.90;99.90
41262;DHT22;29629;52.532;13.352;2023-03-02T08:44:58;2.90;99.90
41262;DHT22;29629;52.532;13.352;2023-03-02T08:47:25;3.10;99.90
41262;DHT22;29629;52.532;13.352;2023-03-02T08:49:52;3.10;99.90
41262;DHT22;29629;52.532;13.352;2023-03-02T08:52:19;3.00;99.90
41262;DHT22;29629;52.532;13.352;2023-03-02T08:54:46;3.20;99.90
41262;DHT22;29629;52.532;13.352;2023-03-02T08:57:12;3.20;99.90
41262;DHT22;29629;52.532;13.352;2023-03-02T08:59:39;3.30;99.90
41262;DHT22;29629;52.532;13.352;2023-03-02T09:02:09;3.30;99.90
41262;DHT22;29629;52.532;13.352;2023-03-02T09:04:35;3.50;99.90
41262;DHT22;29629;52.532;13.352;2023-03-02T09:07:02;3.50;99.90
41262;DHT22;29629;52.532;13.352;2023-03-02T09:09:29;3.50;99.90
41262;DHT22;29629;52.532;13.352;2023-03-02T09:11:56;3.50;99.90
41262;DHT22;29629;52.532;13.352;2023-03-02T09:14:22;3.50;99.90
41262;DHT22;29629;52.532;13.352;2023-03-02T09:16:49;3.50;99.90
41262;DHT22;29629;52.532;13.352;2023-03-02T09:19:18;3.60;99.90
41262;DHT22;29629;52.532;13.352;2023-03-02T09:21:45;3.70;99.90
41262;DHT22;29629;52.532;13.352;2023-03-02T09:24:12;3.80;99.90
41262;DHT22;29629;52.532;13.352;2023-03-02T09:26:39;3.90;99.90
41262;DHT22;29629;52.532;13.352;2023-03-02T09:29:05;3.80;99.90
41262;DHT22;29629;52.532;13.352;2023-03-02T09:31:32;3.90;99.90
41262;DHT22;29629;52.532;13.352;2023-03-02T09:33:59;4.00;99.90
41262;DHT22;29629;52.532;13.352;2023-03-02T09:36:27;4.20;99.90
41262;DHT22;29629;52.532;13.352;2023-03-02T09:38:56;4.30;99.90
41262;DHT22;29629;52.532;13.352;2023-03-02T09:44:15;4.50;99.90
41262;DHT22;29629;52.532;13.352;2023-03-02T09:46:45;4.70;99.90
41262;DHT22;29629;52.532;13.352;2023-03-02T09:49:19;4.80;99.90
41262;DHT22;29629;52.532;13.352;2023-03-02T09:51:54;4.80;99.90
41262;DHT22;29629;52.532;13.352;2023-03-02T09:54:27;4.80;99.90
41262;DHT22;29629;52.532;13.352;2023-03-02T09:56:55;4.70;99.90
41262;DHT22;29629;52.532;13.352;2023-03-02T09:59:23;4.60;99.90
41262;DHT22;29629;52.532;13.352;2023-03-02T10:01:52;4.60;99.90
41262;DHT22;29629;52.532;13.352;2023-03-02T10:04:21;4.60;99.90
41262;DHT22;29629;52.532;13.352;2023-03-02T10:06:50;4.60;99.90
41262;DHT22;29629;52.532;13.352;2023-03-02T10:09:21;4.50;99.90
41262;DHT22;29629;52.532;13.352;2023-03-02T10:11:51;4.50;99.90
41262;DHT22;29629;52.532;13.352;2023-03-02T10:14:23;4.50;99.90
41262;DHT22;29629;52.532;13.352;2023-03-02T10:16:51;4.60;99.90
41262;DHT22;29629;52.532;13.352;2023-03-02T10:19:20;4.70;99.90
41262;DHT22;29629;52.532;13.352;2023-03-02T10:21:50;4.60;99.90
41262;DHT22;29629;52.532;13.352;2023-03-02T10:24:22;4.60;99.90
41262;DHT22;29629;52.532;13.352;2023-03-02T10:26:52;4.70;99.90
41262;DHT22;29629;52.532;13.352;2023-03-02T10:29:22;4.70;99.90
41262;DHT22;29629;52.532;13.352;2023-03-02T10:31:53;4.80;99.90
41262;DHT22;29629;52.532;13.352;2023-03-02T10:34:24;4.80;99.90
41262;DHT22;29629;52.532;13.352;2023-03-02T10:36:51;5.00;99.90
41262;DHT22;29629;52.532;13.352;2023-03-02T10:39:18;5.30;99.90
41262;DHT22;29629;52.532;13.352;2023-03-02T10:41:46;5.40;99.90
41262;DHT22;29629;52.532;13.352;2023-03-02T10:44:17;5.50;99.90
41262;DHT22;29629;52.532;13.352;2023-03-02T10:46:45;5.90;99.90
41262;DHT22;29629;52.532;13.352;2023-03-02T10:49:22;6.30;99.90
41262;DHT22;29629;52.532;13.352;2023-03-02T10:51:53;6.40;99.90
41262;DHT22;29629;52.532;13.352;2023-03-02T10:54:20;6.90;99.90
41262;DHT22;29629;52.532;13.352;2023-03-02T10:56:48;6.90;99.90
41262;DHT22;29629;52.532;13.352;2023-03-02T10:59:28;7.20;99.90
41262;DHT22;29629;52.532;13.352;2023-03-02T11:01:57;7.50;99.90
41262;DHT22;29629;52.532;13.352;2023-03-02T11:04:24;7.70;99.90
41262;DHT22;29629;52.532;13.352;2023-03-02T11:06:51;7.70;99.90
41262;DHT22;29629;52.532;13.352;2023-03-02T11:09:17;7.60;99.90
41262;DHT22;29629;52.532;13.352;2023-03-02T11:11:48;7.30;99.90
41262;DHT22;29629;52.532;13.352;2023-03-02T11:14:19;7.20;99.90
41262;DHT22;29629;52.532;13.352;2023-03-02T11:16:47;7.30;99.90
41262;DHT22;29629;52.532;13.352;2023-03-02T11:19:14;8.00;99.90
41262;DHT22;29629;52.532;13.352;2023-03-02T11:21:42;8.20;99.90
41262;DHT22;29629;52.532;13.352;2023-03-02T11:24:15;8.50;99.90
41262;DHT22;29629;52.532;13.352;2023-03-02T11:26:44;8.60;99.90
41262;DHT22;29629;52.532;13.352;2023-03-02T11:29:19;9.10;99.90
41262;DHT22;29629;52.532;13.352;2023-03-02T11:31:48;9.80;99.90
41262;DHT22;29629;52.532;13.352;2023-03-02T11:34:21;9.90;99.90
41262;DHT22;29629;52.532;13.352;2023-03-02T11:36:57;10.50;99.90
41262;DHT22;29629;52.532;13.352;2023-03-02T11:39:26;11.00;99.90
41262;DHT22;29629;52.532;13.352;2023-03-02T11:41:54;11.80;99.90
41262;DHT22;29629;52.532;13.352;2023-03-02T11:44:22;12.60;99.90
41262;DHT22;29629;52.532;13.352;2023-03-02T11:46:52;12.90;99.90
41262;DHT22;29629;52.532;13.352;2023-03-02T11:49:24;13.40;99.90
41262;DHT22;29629;52.532;13.352;2023-03-02T11:51:53;13.60;99.90
41262;DHT22;29629;52.532;13.352;2023-03-02T11:57:07;14.40;99.90
41262;DHT22;29629;52.532;13.352;2023-03-02T11:59:40;14.60;99.90
41262;DHT22;29629;52.532;13.352;2023-03-02T12:02:07;14.80;99.90
41262;DHT22;29629;52.532;13.352;2023-03-02T12:04:37;14.70;99.90
41262;DHT22;29629;52.532;13.352;2023-03-02T12:07:14;15.10;99.90
41262;DHT22;29629;52.532;13.352;2023-03-02T12:09:42;15.00;99.90
41262;DHT22;29629;52.532;13.352;2023-03-02T12:14:51;15.50;99.90
41262;DHT22;29629;52.532;13.352;2023-03-02T12:17:20;15.60;99.90
41262;DHT22;29629;52.532;13.352;2023-03-02T12:19:47;15.50;99.90
41262;DHT22;29629;52.532;13.352;2023-03-02T12:22:24;15.40;99.90
41262;DHT22;29629;52.532;13.352;2023-03-02T12:24:58;15.50;99.90
41262;DHT22;29629;52.532;13.352;2023-03-02T12:27:25;15.50;99.90
41262;DHT22;29629;52.532;13.352;2023-03-02T12:30:07;15.60;99.90
41262;DHT22;29629;52.532;13.352;2023-03-02T12:32:34;15.60;99.90
41262;DHT22;29629;52.532;13.352;2023-03-02T12:35:02;15.60;99.90
41262;DHT22;29629;52.532;13.352;2023-03-02T12:37:36;15.90;99.90
41262;DHT22;29629;52.532;13.352;2023-03-02T12:42:49;16.10;99.90
41262;DHT22;29629;52.532;13.352;2023-03-02T12:45:22;16.40;99.90
41262;DHT22;29629;52.532;13.352;2023-03-02T12:47:55;16.20;99.90
41262;DHT22;29629;52.532;13.352;2023-03-02T12:50:24;16.00;99.90
41262;DHT22;29629;52.532;13.352;2023-03-02T12:52:57;16.00;99.90
41262;DHT22;29629;52.532;13.352;2023-03-02T12:55:24;15.90;99.90
41262;DHT22;29629;52.532;13.352;2023-03-02T12:57:51;15.90;99.90
41262;DHT22;29629;52.532;13.352;2023-03-02T13:00:19;15.80;99.90
41262;DHT22;29629;52.532;13.352;2023-03-02T13:02:48;16.00;99.90
41262;DHT22;29629;52.532;13.352;2023-03-02T13:05:16;15.90;99.90
41262;DHT22;29629;52.532;13.352;2023-03-02T13:07:45;16.00;99.90
41262;DHT22;29629;52.532;13.352;2023-03-02T13:10:19;15.80;99.90
41262;DHT22;29629;52.532;13.352;2023-03-02T13:12:46;15.70;99.90
41262;DHT22;29629;52.532;13.352;2023-03-02T13:15:13;15.60;99.90
41262;DHT22;29629;52.532;13.352;2023-03-02T13:17:40;15.40;99.90
41262;DHT22;29629;52.532;13.352;2023-03-02T13:20:11;15.40;99.90
41262;DHT22;29629;52.532;13.352;2023-03-02T13:22:39;15.30;99.90
41262;DHT22;29629;52.532;13.352;2023-03-02T13:25:06;14.80;99.90
41262;DHT22;29629;52.532;13.352;2023-03-02T13:27:33;14.40;99.90
41262;DHT22;29629;52.532;13.352;2023-03-02T13:30:07;14.40;99.90
41262;DHT22;29629;52.532;13.352;2023-03-02T13:32:34;14.00;99.90
41262;DHT22;29629;52.532;13.352;2023-03-02T13:35:14;13.80;99.90
41262;DHT22;29629;52.532;13.352;2023-03-02T13:37:41;13.20;99.90
41262;DHT22;29629;52.532;13.352;2023-03-02T13:42:50;12.40;99.90
41262;DHT22;29629;52.532;13.352;2023-03-02T13:45:20;12.40;99.90
41262;DHT22;29629;52.532;13.352;2023-03-02T13:47:49;11.90;99.90
41262;DHT22;29629;52.532;13.352;2023-03-02T13:50:18;11.50;99.90
41262;DHT22;29629;52.532;13.352;2023-03-02T13:52:45;11.20;99.90
41262;DHT22;29629;52.532;13.352;2023-03-02T13:55:13;10.90;99.90
41262;DHT22;29629;52.532;13.352;2023-03-02T13:57:40;10.80;99.90
41262;DHT22;29629;52.532;13.352;2023-03-02T14:00:10;10.50;99.90
41262;DHT22;29629;52.532;13.352;2023-03-02T14:02:36;9.90;99.90
41262;DHT22;29629;52.532;13.352;2023-03-02T14:05:04;9.90;99.90
41262;DHT22;29629;52.532;13.352;2023-03-02T14:07:32;9.60;99.90
41262;DHT22;29629;52.532;13.352;2023-03-02T14:09:59;9.60;99.90
41262;DHT22;29629;52.532;13.352;2023-03-02T14:12:27;9.50;99.90
41262;DHT22;29629;52.532;13.352;2023-03-02T14:14:55;9.50;99.90
41262;DHT22;29629;52.532;13.352;2023-03-02T14:17:23;9.10;99.90
41262;DHT22;29629;52.532;13.352;2023-03-02T14:19:50;9.00;99.90
41262;DHT22;29629;52.532;13.352;2023-03-02T14:22:18;8.90;99.90
41262;DHT22;29629;52.532;13.352;2023-03-02T14:24:46;8.50;99.90
41262;DHT22;29629;52.532;13.352;2023-03-02T14:27:13;8.30;99.90
41262;DHT22;29629;52.532;13.352;2023-03-02T14:29:40;8.10;99.90
41262;DHT22;29629;52.532;13.352;2023-03-02T14:32:08;7.90;99.90
41262;DHT22;29629;52.532;13.352;2023-03-02T14:34:35;7.70;99.90
41262;DHT22;29629;52.532;13.352;2023-03-02T14:37:02;7.60;99.90
41262;DHT22;29629;52.532;13.352;2023-03-02T14:39:31;7.50;99.90
41262;DHT22;29629;52.532;13.352;2023-03-02T14:42:00;7.40;99.90
41262;DHT22;29629;52.532;13.352;2023-03-02T14:44:27;7.20;99.90
41262;DHT22;29629;52.532;13.352;2023-03-02T14:46:54;7.10;99.90
41262;DHT22;29629;52.532;13.352;2023-03-02T14:49:21;7.10;99.90
41262;DHT22;29629;52.532;13.352;2023-03-02T14:51:53;7.00;99.90
41262;DHT22;29629;52.532;13.352;2023-03-02T14:54:21;6.90;99.90
41262;DHT22;29629;52.532;13.352;2023-03-02T14:56:47;6.90;99.90
41262;DHT22;29629;52.532;13.352;2023-03-02T14:59:16;6.70;99.90
41262;DHT22;29629;52.532;13.352;2023-03-02T15:01:43;6.60;99.90
41262;DHT22;29629;52.532;13.352;2023-03-02T15:04:09;6.60;99.90
41262;DHT22;29629;52.532;13.352;2023-03-02T15:06:36;6.50;99.90
41262;DHT22;29629;52.532;13.352;2023-03-02T15:09:04;6.40;99.90
41262;DHT22;29629;52.532;13.352;2023-03-02T15:11:30;6.30;99.90
41262;DHT22;29629;52.532;13.352;2023-03-02T15:13:57;6.30;99.90
41262;DHT22;29629;52.532;13.352;2023-03-02T15:16:25;6.20;99.90
41262;DHT22;29629;52.532;13.352;2023-03-02T15:18:52;6.10;99.90
41262;DHT22;29629;52.532;13.352;2023-03-02T15:21:19;5.80;99.90
41262;DHT22;29629;52.532;13.352;2023-03-02T15:23:46;5.80;99.90
41262;DHT22;29629;52.532;13.352;2023-03-02T15:26:13;5.90;99.90
41262;DHT22;29629;52.532;13.352;2023-03-02T15:28:40;5.80;99.90
41262;DHT22;29629;52.532;13.352;2023-03-02T15:31:07;5.60;99.90
41262;DHT22;29629;52.532;13.352;2023-03-02T15:33:35;5.50;99.90
41262;DHT22;29629;52.532;13.352;2023-03-02T15:36:03;5.40;99.90
41262;DHT22;29629;52.532;13.352;2023-03-02T15:38:31;5.40;99.90
41262;DHT22;29629;52.532;13.352;2023-03-02T15:41:02;5.40;99.90
41262;DHT22;29629;52.532;13.352;2023-03-02T15:43:29;5.30;99.90
41262;DHT22;29629;52.532;13.352;2023-03-02T15:45:55;5.20;99.90
41262;DHT22;29629;52.532;13.352;2023-03-02T15:48:22;5.20;99.90